Time;durP1;ratioP1;P1;durP2;ratioP2;P2;SDS_P1;SDS_P2;PMS_P1;PMS_P2;Temp;Humidity;BMP_temperature;BMP_pressure;BME280_temperature;BME280_humidity;BME280_pressure;Samples;Min_cycle;Max_cycle;Signal;HPM_P1;HPM_P2
2022/09/29 00:01:22;;;;;;;9.50;6.10;;;;;;;12.94;94.41;100037.36;106870;1254;60679;-81
2022/09/29 00:03:51;;;;;;;8.70;5.90;;;;;;;13.00;94.14;100035.05;106817;1254;59788;-82
2022/09/29 00:06:20;;;;;;;12.40;6.60;;;;;;;13.04;93.76;100031.23;106850;1254;74028;-82
2022/09/29 00:08:49;;;;;;;10.80;6.10;;;;;;;13.08;93.85;100032.70;106824;1254;72146;-83
2022/09/29 00:11:19;;;;;;;10.20;6.20;;;;;;;13.14;93.50;100036.02;107047;1254;71156;-79
2022/09/29 00:13:47;;;;;;;12.00;5.80;;;;;;;13.17;93.27;100042.70;107027;1254;75603;-82
2022/09/29 00:16:16;;;;;;;12.20;7.20;;;;;;;13.16;93.14;100038.04;106936;1257;61285;-80
2022/09/29 00:18:45;;;;;;;11.20;6.30;;;;;;;13.15;93.39;100035.90;106916;1254;61387;-82
2022/09/29 00:21:20;;;;;;;12.70;6.30;;;;;;;13.09;93.68;100034.33;106896;1254;74319;-82
2022/09/29 00:23:49;;;;;;;9.50;6.20;;;;;;;13.06;93.69;100036.71;106955;1254;71405;-80
2022/09/29 00:26:22;;;;;;;12.90;6.70;;;;;;;13.04;93.95;100037.83;106972;1254;68463;-81
2022/09/29 00:28:57;;;;;;;9.70;6.30;;;;;;;13.03;93.96;100042.10;106832;1255;72036;-81
2022/09/29 00:31:32;;;;;;;10.90;6.60;;;;;;;12.97;94.18;100034.92;106847;1254;61337;-80
2022/09/29 00:34:01;;;;;;;11.00;5.90;;;;;;;12.90;94.40;100027.72;107103;1254;59120;-81
2022/09/29 00:36:30;;;;;;;11.40;6.30;;;;;;;12.84;94.67;100021.85;107006;1255;72581;-81
2022/09/29 00:38:59;;;;;;;9.50;5.90;;;;;;;12.81;95.23;100019.48;107071;1254;72413;-82
2022/09/29 00:41:34;;;;;;;14.30;6.80;;;;;;;12.82;95.41;100026.06;107072;1254;70053;-80
2022/09/29 00:44:12;;;;;;;11.10;6.60;;;;;;;12.84;95.29;100018.67;107076;1254;72817;-82
2022/09/29 00:46:46;;;;;;;10.50;6.30;;;;;;;12.80;95.16;100018.55;107035;1254;62742;-83
2022/09/29 00:49:46;;;;;;;11.30;6.40;;;;;;;12.76;95.49;100017.65;106940;1254;61771;-82
2022/09/29 00:52:24;;;;;;;9.80;6.30;;;;;;;12.70;94.67;100015.55;107028;1254;74381;-80
2022/09/29 00:55:21;;;;;;;11.70;6.80;;;;;;;12.62;93.01;100021.59;106938;1254;70766;-82
2022/09/29 00:58:06;;;;;;;13.20;6.60;;;;;;;12.50;92.60;100020.94;106927;1255;69168;-79
2022/09/29 01:00:36;;;;;;;11.00;6.30;;;;;;;12.38;93.41;100016.25;106982;1254;73962;-83
2022/09/29 01:03:12;;;;;;;10.70;6.10;;;;;;;12.33;96.90;100023.83;106729;1255;62933;-84
2022/09/29 01:05:56;;;;;;;13.40;7.40;;;;;;;12.39;97.20;100022.61;107065;1254;61193;-83
2022/09/29 01:08:38;;;;;;;15.20;6.80;;;;;;;12.39;96.85;100023.30;106946;1254;72459;-82
2022/09/29 01:11:10;;;;;;;10.80;6.20;;;;;;;12.36;96.12;100019.55;106752;1255;70427;-84
2022/09/29 01:13:40;;;;;;;15.30;6.30;;;;;;;12.30;96.22;100014.21;106878;1255;70634;-81
2022/09/29 01:16:09;;;;;;;12.30;7.00;;;;;;;12.23;97.01;100010.68;106934;1254;72755;-81
2022/09/29 01:18:39;;;;;;;13.70;6.70;;;;;;;12.17;96.97;100009.96;106896;1255;62474;-82
2022/09/29 01:21:24;;;;;;;12.10;6.70;;;;;;;12.10;97.14;100011.48;106735;1255;61675;-81
2022/09/29 01:24:35;;;;;;;10.00;6.80;;;;;;;12.01;96.58;100010.71;106981;1255;73399;-82
2022/09/29 01:27:27;;;;;;;11.60;5.90;;;;;;;11.90;97.54;100012.18;106759;1257;71867;-79
2022/09/29 01:30:17;;;;;;;12.30;5.90;;;;;;;11.83;97.80;100011.77;106870;1254;68186;-80
2022/09/29 01:33:18;;;;;;;9.10;6.70;;;;;;;11.76;98.31;100013.09;106883;1254;71798;-79
2022/09/29 01:36:22;;;;;;;11.30;6.00;;;;;;;11.70;98.77;100019.91;106984;1254;62986;-79
2022/09/29 01:39:14;;;;;;;11.50;6.70;;;;;;;11.63;98.44;100017.56;106947;1254;61020;-80
2022/09/29 01:42:06;;;;;;;11.20;6.30;;;;;;;11.56;98.48;100015.21;106943;1254;73268;-77
2022/09/29 01:44:49;;;;;;;10.90;5.90;;;;;;;11.51;98.85;100014.75;106949;1255;70418;-81
2022/09/29 01:47:26;;;;;;;9.30;5.70;;;;;;;11.46;97.99;100013.63;106760;1255;69800;-78
2022/09/29 01:50:06;;;;;;;10.50;6.30;;;;;;;11.38;97.52;100013.39;106957;1254;73767;-84
2022/09/29 01:52:44;;;;;;;12.30;6.70;;;;;;;11.45;99.03;100015.48;106647;1254;62942;-81
2022/09/29 01:55:20;;;;;;;9.00;6.00;;;;;;;11.53;98.80;100015.86;107035;1255;59802;-82
2022/09/29 01:57:59;;;;;;;9.30;6.00;;;;;;;11.54;97.71;100014.98;106823;1255;71429;-82
2022/09/29 02:00:34;;;;;;;9.40;6.20;;;;;;;11.52;96.95;100015.88;106935;1255;70560;-82
2022/09/29 02:03:57;;;;;;;9.10;5.40;;;;;;;11.47;96.48;100017.40;106988;1255;71037;-84
2022/09/29 02:06:40;;;;;;;8.60;5.50;;;;;;;11.36;96.47;100017.43;106881;1255;73263;-82
2022/09/29 02:09:18;;;;;;;8.90;5.30;;;;;;;11.31;98.09;100015.27;107085;1255;62092;-82
2022/09/29 02:11:49;;;;;;;9.50;5.00;;;;;;;11.32;97.99;100014.14;107130;1255;59424;-82
2022/09/29 02:14:29;;;;;;;7.40;5.30;;;;;;;11.35;97.55;100013.30;108264;1255;73292;-82
2022/09/29 02:17:18;;;;;;;6.80;4.60;;;;;;;11.38;97.17;100020.02;108803;1254;70840;-81
2022/09/29 02:19:50;;;;;;;6.80;4.20;;;;;;;11.38;96.51;100024.06;107015;1255;69206;-82
2022/09/29 02:22:19;;;;;;;7.20;4.40;;;;;;;11.33;96.75;100021.87;106794;1255;72456;-82
2022/09/29 02:24:53;;;;;;;6.40;4.90;;;;;;;11.31;97.12;100017.91;106750;1255;61396;-81
2022/09/29 02:27:23;;;;;;;7.60;4.50;;;;;;;11.39;98.30;100014.91;106898;1255;59859;-82
2022/09/29 02:29:52;;;;;;;10.20;4.90;;;;;;;11.49;97.58;100020.14;106856;1255;73062;-84
2022/09/29 02:32:21;;;;;;;6.80;5.20;;;;;;;11.58;97.39;100019.15;106743;1255;70448;-76
2022/09/29 02:34:51;;;;;;;8.30;4.90;;;;;;;11.63;96.41;100009.64;106586;1257;67124;-76
2022/09/29 02:37:42;;;;;;;7.50;4.70;;;;;;;11.62;96.41;100007.29;106510;1255;72657;-76
2022/09/29 02:40:32;;;;;;;7.60;5.20;;;;;;;11.70;96.71;100008.20;106763;1255;63886;-81
2022/09/29 02:43:21;;;;;;;6.60;5.10;;;;;;;11.65;95.80;100003.41;106819;1255;61538;-82
2022/09/29 02:46:07;;;;;;;12.80;5.90;;;;;;;11.60;95.90;100008.21;106710;1255;71539;-82
2022/09/29 02:48:55;;;;;;;11.10;6.90;;;;;;;11.51;95.75;100009.65;106541;1258;70442;-81
2022/09/29 02:51:39;;;;;;;11.10;6.40;;;;;;;11.40;95.55;100006.76;106877;1255;69087;-81
2022/09/29 02:54:58;;;;;;;12.30;6.10;;;;;;;11.28;95.71;100006.45;106935;1255;73653;-79
2022/09/29 02:57:58;;;;;;;11.50;6.00;;;;;;;11.12;95.56;100013.88;106337;1256;61412;-78
2022/09/29 03:00:27;;;;;;;8.40;5.20;;;;;;;11.05;98.12;100007.40;106711;1255;61378;-79
2022/09/29 03:02:56;;;;;;;11.10;5.70;;;;;;;11.08;98.99;100009.23;106763;1257;72326;-81
2022/09/29 03:05:25;;;;;;;8.30;5.30;;;;;;;11.19;98.68;100004.13;106946;1255;71532;-79
2022/09/29 03:07:54;;;;;;;9.60;5.50;;;;;;;11.18;97.43;100005.42;106836;1255;70672;-76
2022/09/29 03:10:22;;;;;;;10.40;5.30;;;;;;;11.13;97.04;100002.33;106770;1257;74502;-80
2022/09/29 03:12:57;;;;;;;9.20;5.30;;;;;;;11.07;97.22;100004.30;106726;1256;61846;-79
2022/09/29 03:15:26;;;;;;;9.30;5.50;;;;;;;11.02;97.70;100012.56;106847;1255;61399;-83
2022/09/29 03:17:58;;;;;;;7.50;5.10;;;;;;;10.96;97.68;100009.17;106957;1255;73747;-82
2022/09/29 03:20:27;;;;;;;13.30;4.90;;;;;;;10.89;96.84;100005.30;106782;1255;71252;-80
2022/09/29 03:22:56;;;;;;;10.80;5.90;;;;;;;10.78;98.06;100004.10;106691;1255;68692;-79
2022/09/29 03:25:25;;;;;;;9.10;5.30;;;;;;;10.77;99.13;100002.47;106685;1255;73037;-79
2022/09/29 03:27:55;;;;;;;7.80;5.30;;;;;;;10.78;99.42;100004.82;106645;1256;61635;-78
2022/09/29 03:30:24;;;;;;;7.70;5.50;;;;;;;10.77;99.34;100009.41;106774;1255;59740;-79
2022/09/29 03:32:53;;;;;;;8.90;5.40;;;;;;;10.79;99.86;100009.77;106751;1255;74643;-80
2022/09/29 03:35:21;;;;;;;7.80;5.40;;;;;;;10.76;99.10;100011.02;106845;1253;72986;-78
2022/09/29 03:37:50;;;;;;;8.30;5.20;;;;;;;10.78;99.95;100006.55;107040;1255;69855;-80
2022/09/29 03:40:19;;;;;;;14.80;9.20;;;;;;;10.76;99.32;100011.40;106988;1254;73132;-79
2022/09/29 03:42:47;;;;;;;8.80;4.80;;;;;;;10.74;98.99;100009.53;106971;1254;63894;-79
2022/09/29 03:45:16;;;;;;;10.90;6.10;;;;;;;10.74;98.93;100011.27;106943;1255;59551;-81
2022/09/29 03:47:45;;;;;;;12.20;7.20;;;;;;;10.82;99.12;100013.84;106976;1255;75000;-79
2022/09/29 03:50:13;;;;;;;12.40;6.20;;;;;;;10.90;98.82;100016.32;106972;1255;72679;-80
2022/09/29 03:52:42;;;;;;;10.60;6.50;;;;;;;10.92;98.68;100019.11;106909;1254;71230;-79
2022/09/29 03:55:11;;;;;;;11.50;5.90;;;;;;;10.92;98.82;100013.61;106951;1254;72943;-85
2022/09/29 03:57:40;;;;;;;13.80;6.30;;;;;;;10.86;98.57;100010.89;107084;1254;62253;-86
2022/09/29 04:00:10;;;;;;;12.40;6.00;;;;;;;10.83;99.19;100010.65;107091;1254;61889;-87
2022/09/29 04:02:39;;;;;;;10.00;6.00;;;;;;;10.95;98.13;100014.91;107081;1255;71409;-86
2022/09/29 04:05:08;;;;;;;12.10;5.80;;;;;;;10.97;97.10;100011.58;107011;1255;72391;-86
2022/09/29 04:07:36;;;;;;;12.50;5.70;;;;;;;11.01;97.60;100018.41;107132;1254;71012;-77
2022/09/29 04:10:05;;;;;;;17.20;6.70;;;;;;;11.03;97.34;100021.15;106788;1257;72137;-85
2022/09/29 04:12:34;;;;;;;10.30;6.10;;;;;;;11.03;97.04;100025.66;107075;1255;61469;-82
2022/09/29 04:15:04;;;;;;;15.20;7.60;;;;;;;11.05;97.36;100025.52;106943;1255;59115;-78
2022/09/29 04:19:08;;;;;;;12.10;6.30;;;;;;;11.00;97.35;100027.67;104821;1282;600369;-85
2022/09/29 04:21:37;;;;;;;12.40;6.80;;;;;;;10.95;97.69;100029.14;107356;1254;60378;-86
2022/09/29 04:24:06;;;;;;;15.40;7.40;;;;;;;10.94;97.78;100025.23;107332;1254;61707;-88
2022/09/29 04:26:35;;;;;;;18.50;6.60;;;;;;;10.96;97.02;100026.63;107995;1254;71911;-85
2022/09/29 04:29:03;;;;;;;11.80;6.90;;;;;;;10.93;96.64;100022.19;108306;1254;71650;-83
2022/09/29 04:31:32;;;;;;;12.90;7.40;;;;;;;10.94;97.54;100020.02;108232;1254;69733;-86
2022/09/29 04:34:01;;;;;;;10.90;6.80;;;;;;;10.92;97.52;100018.95;107111;1254;74753;-89
2022/09/29 04:36:30;;;;;;;15.50;6.80;;;;;;;10.92;97.60;100022.09;107361;1253;61165;-90
2022/09/29 04:38:59;;;;;;;22.20;7.30;;;;;;;10.93;97.68;100020.78;107164;1253;62242;-90
2022/09/29 04:41:28;;;;;;;17.70;8.30;;;;;;;10.97;98.07;100023.57;107521;1253;72095;-88
2022/09/29 04:43:56;;;;;;;16.60;7.40;;;;;;;11.04;97.90;100029.93;107491;1254;72437;-90
2022/09/29 04:46:25;;;;;;;12.90;7.10;;;;;;;11.11;97.14;100042.20;107674;1252;68724;-90
2022/09/29 04:48:53;;;;;;;18.50;7.70;;;;;;;11.15;96.91;100039.45;107980;1253;73028;-87
2022/09/29 04:51:22;;;;;;;19.20;8.50;;;;;;;11.10;96.70;100038.30;107989;1253;60916;-91
2022/09/29 04:53:52;;;;;;;14.10;6.40;;;;;;;11.11;96.88;100043.45;107440;1256;59371;-90
2022/09/29 04:56:20;;;;;;;12.20;6.10;;;;;;;11.15;96.30;100046.40;107562;1254;72637;-88
2022/09/29 04:58:49;;;;;;;12.50;6.90;;;;;;;11.06;95.58;100045.27;107782;1253;70682;-89
2022/09/29 05:01:18;;;;;;;13.80;7.30;;;;;;;10.92;95.71;100044.52;107740;1254;67942;-87
2022/09/29 05:03:47;;;;;;;24.50;8.30;;;;;;;10.86;96.23;100044.14;107840;1253;73922;-89
2022/09/29 05:06:16;;;;;;;22.40;8.70;;;;;;;10.85;96.51;100041.30;107517;1252;62484;-88
2022/09/29 05:08:44;;;;;;;23.20;9.90;;;;;;;10.95;97.06;100046.42;107819;1253;61013;-89
2022/09/29 05:11:14;;;;;;;21.60;8.70;;;;;;;11.10;97.27;100046.66;107718;1254;72602;-87
2022/09/29 05:13:42;;;;;;;18.60;8.00;;;;;;;11.24;96.32;100048.95;107580;1254;73747;-88
2022/09/29 05:16:14;;;;;;;19.30;8.20;;;;;;;11.37;95.69;100052.01;107561;1254;68753;-88
2022/09/29 05:18:43;;;;;;;15.60;7.40;;;;;;;11.46;94.97;100046.95;107315;1256;71204;-90
2022/09/29 05:21:12;;;;;;;24.30;9.20;;;;;;;11.42;94.82;100045.51;107531;1253;63011;-90
2022/09/29 05:23:57;;;;;;;19.50;8.70;;;;;;;11.40;95.51;100047.05;108076;1253;60266;-87
2022/09/29 05:26:25;;;;;;;21.60;8.20;;;;;;;11.49;95.81;100051.17;108421;1253;72595;-89
2022/09/29 05:28:54;;;;;;;18.80;8.10;;;;;;;11.63;95.34;100052.89;108699;1253;70322;-88
2022/09/29 05:31:23;;;;;;;26.50;9.90;;;;;;;11.76;95.18;100056.48;109242;1254;69514;-89
2022/09/29 05:33:54;;;;;;;22.20;8.80;;;;;;;11.92;93.92;100056.33;108614;1253;73191;-88
2022/09/29 05:36:26;;;;;;;16.40;8.60;;;;;;;12.13;93.55;100054.29;108112;1253;62655;-92
2022/09/29 05:38:55;;;;;;;17.90;9.00;;;;;;;12.31;92.55;100047.98;107186;1253;60844;-80
2022/09/29 05:41:24;;;;;;;16.60;9.10;;;;;;;12.46;91.77;100049.73;107033;1254;73364;-75
2022/09/29 05:43:54;;;;;;;15.10;9.00;;;;;;;12.59;91.22;100053.52;107066;1254;72909;-74
2022/09/29 05:46:23;;;;;;;21.00;10.30;;;;;;;12.71;91.15;100051.81;106826;1257;68315;-77
2022/09/29 05:48:53;;;;;;;16.80;9.80;;;;;;;12.87;90.54;100045.52;106966;1253;71053;-74
2022/09/29 05:51:23;;;;;;;28.80;14.90;;;;;;;13.04;90.07;100044.45;106979;1257;61341;-72
2022/09/29 05:53:53;;;;;;;43.00;23.90;;;;;;;13.46;87.60;100042.20;107085;1254;61410;-76
2022/09/29 05:56:26;;;;;;;23.20;11.70;;;;;;;13.74;86.14;100032.77;106883;1256;71774;-78
2022/09/29 05:58:55;;;;;;;23.20;10.60;;;;;;;13.79;86.08;100038.95;107025;1254;71482;-76
2022/09/29 06:01:25;;;;;;;43.10;14.30;;;;;;;13.92;85.61;100037.31;106827;1256;71338;-76
2022/09/29 06:04:03;;;;;;;30.70;12.70;;;;;;;14.10;84.57;100027.48;107075;1254;72981;-80
2022/09/29 06:06:32;;;;;;;48.50;14.30;;;;;;;14.22;84.08;100018.45;106983;1256;59912;-77
2022/09/29 06:09:01;;;;;;;37.80;15.00;;;;;;;14.34;83.52;100015.84;107065;1254;60484;-80
2022/09/29 06:11:30;;;;;;;127.00;35.00;;;;;;;14.42;83.33;100012.06;107079;1253;70329;-78
2022/09/29 06:14:02;;;;;;;99.00;28.10;;;;;;;14.63;82.62;100008.64;106979;1254;72007;-77
2022/09/29 06:16:33;;;;;;;43.50;18.20;;;;;;;14.73;82.16;100007.55;107016;1255;70998;-78
2022/09/29 06:19:03;;;;;;;112.30;24.80;;;;;;;14.67;81.97;100009.96;106968;1256;73616;-79
2022/09/29 06:21:36;;;;;;;127.20;25.70;;;;;;;14.65;82.62;100013.30;107030;1256;61747;-76
2022/09/29 06:24:06;;;;;;;187.50;33.10;;;;;;;14.73;82.46;100015.98;107004;1255;59263;-77
2022/09/29 06:26:34;;;;;;;29.50;13.70;;;;;;;14.84;82.92;100022.61;106859;1256;72809;-75
2022/09/29 06:29:03;;;;;;;36.60;12.50;;;;;;;14.92;82.52;100026.00;106955;1256;69939;-76
2022/09/29 06:31:32;;;;;;;1032.90;137.30;;;;;;;14.97;82.61;100028.85;106959;1256;67857;-76
2022/09/29 06:34:04;;;;;;;1994.90;480.60;;;;;;;14.99;82.32;100032.19;106969;1255;70989;-77
2022/09/29 06:39:31;;;;;;;59.60;17.50;;;;;;;15.16;81.81;100034.95;107033;1256;59011;-78
2022/09/29 06:42:00;;;;;;;109.70;22.60;;;;;;;15.23;81.89;100037.05;107016;1256;72754;-78
2022/09/29 06:44:29;;;;;;;31.10;12.70;;;;;;;15.31;81.77;100031.99;106932;1256;71786;-76
2022/09/29 06:46:59;;;;;;;26.10;12.60;;;;;;;15.43;81.57;100026.35;106992;1256;69114;-78
2022/09/29 06:49:27;;;;;;;148.20;24.30;;;;;;;15.60;80.62;100025.48;106891;1256;74561;-77
2022/09/29 06:51:56;;;;;;;424.30;56.00;;;;;;;15.77;79.30;100029.39;107001;1256;59014;-78
2022/09/29 06:54:25;;;;;;;152.90;25.00;;;;;;;15.98;79.50;100031.84;106861;1256;59436;-76
2022/09/29 06:56:54;;;;;;;93.60;20.70;;;;;;;16.14;77.99;100032.79;106873;1256;70168;-78
2022/09/29 06:59:24;;;;;;;55.50;16.20;;;;;;;16.37;76.71;100031.65;106962;1255;71625;-77
2022/09/29 07:01:52;;;;;;;83.70;21.50;;;;;;;16.58;76.50;100029.89;106970;1256;70979;-78
2022/09/29 07:04:21;;;;;;;22.30;12.50;;;;;;;16.76;75.76;100030.75;106936;1256;74354;-76
2022/09/29 07:06:52;;;;;;;297.10;40.70;;;;;;;16.82;75.07;100029.60;106838;1256;61090;-80
2022/09/29 07:09:22;;;;;;;313.20;37.80;;;;;;;16.93;74.81;100031.16;106937;1256;59081;-77
2022/09/29 07:11:51;;;;;;;85.30;17.90;;;;;;;17.05;74.95;100028.76;107024;1256;70991;-78
2022/09/29 07:14:22;;;;;;;167.10;22.70;;;;;;;17.29;74.58;100031.70;107000;1256;70827;-76
2022/09/29 07:16:52;;;;;;;47.50;12.60;;;;;;;17.58;73.07;100029.19;107067;1256;67810;-77
2022/09/29 07:19:21;;;;;;;483.20;59.00;;;;;;;17.79;72.65;100021.61;107117;1254;73286;-76
2022/09/29 07:21:51;;;;;;;198.90;27.60;;;;;;;17.97;72.50;100013.30;107005;1254;63581;-79
2022/09/29 07:24:20;;;;;;;1221.60;178.60;;;;;;;18.16;71.05;100009.81;106950;1253;59160;-77
2022/09/29 07:26:49;;;;;;;740.80;99.40;;;;;;;18.43;70.11;100002.34;107004;1254;71989;-77
2022/09/29 07:29:18;;;;;;;25.70;10.30;;;;;;;18.65;68.48;100001.88;107002;1254;71892;-76
2022/09/29 07:31:50;;;;;;;1879.30;290.10;;;;;;;18.89;67.96;99999.81;107077;1253;60009;-78
2022/09/29 07:34:22;;;;;;;522.90;61.10;;;;;;;19.14;67.45;99998.95;107185;1251;63948;-77
2022/09/29 07:36:51;;;;;;;617.10;86.90;;;;;;;19.44;66.00;99995.16;106968;1251;61360;-76
2022/09/29 07:39:22;;;;;;;581.60;76.80;;;;;;;19.52;65.14;99993.64;107135;1253;60868;-78
2022/09/29 07:41:51;;;;;;;845.30;103.00;;;;;;;19.55;64.89;99990.86;106993;1254;62800;-78
2022/09/29 07:44:20;;;;;;;168.20;24.80;;;;;;;19.67;64.74;99993.33;107136;1251;71403;-79
2022/09/29 07:46:49;;;;;;;563.00;69.70;;;;;;;19.63;64.56;99995.20;107126;1254;71443;-83
2022/09/29 07:49:18;;;;;;;123.30;18.80;;;;;;;19.39;64.18;99993.77;107207;1254;73014;-79
2022/09/29 07:51:47;;;;;;;534.40;66.30;;;;;;;19.46;64.35;99991.84;107085;1253;59825;-75
2022/09/29 07:54:15;;;;;;;71.30;14.20;;;;;;;19.43;64.62;99996.54;107257;1252;61129;-79
2022/09/29 07:56:44;;;;;;;162.40;20.30;;;;;;;19.48;64.50;99997.73;107106;1254;62239;-78
2022/09/29 07:59:13;;;;;;;20.30;8.50;;;;;;;19.37;64.71;99999.89;107171;1254;70571;-78
2022/09/29 08:01:42;;;;;;;26.10;8.80;;;;;;;19.50;64.90;99998.70;107152;1253;60027;-78
2022/09/29 08:04:11;;;;;;;350.10;42.50;;;;;;;19.56;64.44;99999.95;107229;1251;73846;-74
2022/09/29 08:06:40;;;;;;;30.00;9.00;;;;;;;19.65;64.23;100001.50;107061;1251;62762;-80
2022/09/29 08:09:09;;;;;;;96.70;14.70;;;;;;;19.88;63.21;99991.80;107159;1250;61159;-75
2022/09/29 08:11:41;;;;;;;135.30;18.30;;;;;;;20.05;62.07;99989.69;107088;1253;73507;-76
2022/09/29 08:14:13;;;;;;;234.10;26.80;;;;;;;20.14;61.20;99987.61;107150;1253;62228;-75
2022/09/29 08:16:42;;;;;;;49.30;11.00;;;;;;;20.38;61.76;99991.16;107035;1252;60039;-75
2022/09/29 08:19:11;;;;;;;97.10;13.50;;;;;;;20.64;61.11;99990.20;107016;1254;73873;-78
2022/09/29 08:21:41;;;;;;;27.80;8.40;;;;;;;20.63;59.91;99986.88;106863;1254;59054;-77
2022/09/29 08:24:12;;;;;;;57.90;11.90;;;;;;;20.60;59.49;99984.17;107147;1254;61318;-79
2022/09/29 08:26:41;;;;;;;86.40;12.80;;;;;;;20.51;58.90;99981.25;107162;1254;71629;-77
2022/09/29 08:29:14;;;;;;;16.90;6.00;;;;;;;20.67;59.05;99983.20;107150;1253;62590;-77
2022/09/29 08:31:46;;;;;;;17.50;6.40;;;;;;;20.65;58.34;99982.36;107147;1254;59277;-79
2022/09/29 08:34:15;;;;;;;48.00;9.70;;;;;;;20.78;58.23;99976.66;106863;1253;74953;-81
2022/09/29 08:36:44;;;;;;;89.30;14.30;;;;;;;21.00;58.83;99977.98;107056;1254;58991;-81
2022/09/29 08:39:14;;;;;;;134.30;25.40;;;;;;;21.19;59.26;99981.50;107138;1253;59240;-79
2022/09/29 08:42:04;;;;;;;49.70;12.60;;;;;;;21.44;58.18;99986.81;107187;1254;73613;-77
2022/09/29 08:44:45;;;;;;;15.10;7.10;;;;;;;21.65;57.62;99989.98;106868;1254;73114;-77
2022/09/29 08:47:34;;;;;;;14.00;6.30;;;;;;;21.70;57.51;99990.77;107139;1254;70505;-81
2022/09/29 08:50:28;;;;;;;11.50;5.60;;;;;;;21.73;56.89;99992.13;107216;1254;74355;-79
2022/09/29 08:53:05;;;;;;;44.40;11.00;;;;;;;21.71;56.18;99992.23;107325;1254;59003;-79
2022/09/29 08:56:04;;;;;;;22.00;6.60;;;;;;;21.65;56.90;99998.20;107220;1254;57499;-79
2022/09/29 08:58:36;;;;;;;1044.00;130.20;;;;;;;21.87;58.04;99997.81;107097;1254;73738;-79
2022/09/29 09:01:52;;;;;;;250.50;30.60;;;;;;;21.87;56.98;100001.66;107369;1254;73145;-79
2022/09/29 09:04:42;;;;;;;68.60;10.90;;;;;;;21.95;56.87;100003.63;107629;1253;60609;-79
2022/09/29 09:07:42;;;;;;;24.00;7.70;;;;;;;22.02;56.27;100004.71;107262;1253;73648;-76
2022/09/29 09:10:46;;;;;;;204.30;27.70;;;;;;;21.83;55.08;100005.95;106936;1254;59064;-79
2022/09/29 09:13:26;;;;;;;210.20;28.60;;;;;;;21.63;55.03;100015.29;107273;1254;61321;-78
2022/09/29 09:16:15;;;;;;;112.90;18.00;;;;;;;21.60;56.12;100015.81;107246;1254;63433;-81
2022/09/29 09:19:09;;;;;;;159.40;20.70;;;;;;;21.68;56.71;100017.23;107261;1254;61678;-81
2022/09/29 09:22:06;;;;;;;10.80;6.00;;;;;;;21.85;56.86;100019.73;107135;1251;70723;-80
2022/09/29 09:24:48;;;;;;;17.40;6.30;;;;;;;22.02;56.42;100020.30;107394;1253;63099;-79
2022/09/29 09:27:25;;;;;;;69.90;12.70;;;;;;;22.22;56.02;100019.01;107338;1251;61322;-81
2022/09/29 09:30:21;;;;;;;200.10;26.10;;;;;;;22.19;56.01;100020.39;107138;1254;58977;-77
2022/09/29 09:32:58;;;;;;;62.30;11.20;;;;;;;22.40;55.52;100021.85;107219;1253;72802;-80
2022/09/29 09:35:50;;;;;;;365.30;46.20;;;;;;;22.50;54.87;100019.27;107304;1251;71845;-82
2022/09/29 09:38:52;;;;;;;30.10;7.90;;;;;;;22.39;54.72;100022.09;107113;1253;59807;-80
2022/09/29 09:41:25;;;;;;;13.00;6.50;;;;;;;22.29;54.42;100023.55;106990;1253;63272;-79
2022/09/29 09:44:08;;;;;;;57.40;11.30;;;;;;;22.54;54.12;100025.89;107095;1254;61319;-81
2022/09/29 09:47:02;;;;;;;27.40;8.30;;;;;;;22.32;54.10;100026.67;107067;1251;60980;-80
2022/09/29 09:49:44;;;;;;;84.70;13.60;;;;;;;22.37;54.49;100033.52;107181;1253;73901;-78
2022/09/29 09:52:23;;;;;;;93.10;14.70;;;;;;;22.53;53.78;100034.98;107302;1254;62385;-79
2022/09/29 09:55:26;;;;;;;52.10;9.40;;;;;;;22.41;51.61;100033.88;107187;1254;59799;-80
2022/09/29 09:58:43;;;;;;;21.60;5.50;;;;;;;22.71;50.33;100034.81;107094;1254;73473;-81
2022/09/29 10:01:12;;;;;;;35.00;6.10;;;;;;;22.66;50.03;100029.48;107119;1251;62133;-79
2022/09/29 10:03:41;;;;;;;14.60;5.00;;;;;;;22.62;50.26;100026.63;107173;1254;61516;-82
2022/09/29 10:06:09;;;;;;;19.20;5.10;;;;;;;22.43;49.76;100024.54;107223;1251;64086;-82
2022/09/29 10:08:41;;;;;;;41.70;6.10;;;;;;;22.47;49.33;100021.39;107426;1251;60757;-81
2022/09/29 10:11:25;;;;;;;8.80;3.70;;;;;;;22.93;49.45;100018.26;108166;1251;70575;-82
2022/09/29 10:14:11;;;;;;;41.30;6.80;;;;;;;22.93;47.99;100013.71;107910;1254;74341;-85
2022/09/29 10:16:51;;;;;;;20.90;4.90;;;;;;;23.22;48.16;100011.17;107131;1254;59129;-79
2022/09/29 10:19:52;;;;;;;6.30;3.30;;;;;;;23.34;47.46;100008.02;107283;1251;61261;-82
2022/09/29 10:22:21;;;;;;;23.70;4.90;;;;;;;23.39;47.74;100010.33;107156;1253;74267;-81
2022/09/29 10:25:15;;;;;;;28.80;9.20;;;;;;;23.60;47.51;100008.74;107241;1254;61566;-79
2022/09/29 10:27:56;;;;;;;5.50;3.80;;;;;;;23.77;47.07;100005.42;107262;1254;62039;-80
2022/09/29 10:30:34;;;;;;;30.10;12.20;;;;;;;24.13;45.96;100000.06;107261;1251;72446;-81
2022/09/29 10:33:05;;;;;;;7.80;3.40;;;;;;;24.00;46.06;100005.90;107278;1251;60839;-79
2022/09/29 10:35:42;;;;;;;8.10;3.60;;;;;;;24.11;45.81;99999.38;107116;1254;60816;-81
2022/09/29 10:38:31;;;;;;;7.20;3.70;;;;;;;24.33;45.20;99999.31;107134;1251;74675;-79
2022/09/29 10:41:07;;;;;;;11.00;3.70;;;;;;;24.49;45.71;99994.55;107088;1254;71844;-83
2022/09/29 10:43:39;;;;;;;20.50;4.90;;;;;;;24.07;45.72;99995.64;107142;1251;69812;-79
2022/09/29 10:46:48;;;;;;;16.60;4.60;;;;;;;23.64;46.63;99992.67;107261;1251;74370;-76
2022/09/29 10:49:19;;;;;;;17.80;4.30;;;;;;;23.40;47.28;99989.37;107152;1251;61914;-82
2022/09/29 10:51:59;;;;;;;19.40;4.70;;;;;;;23.54;47.73;99983.87;107149;1254;59170;-82
2022/09/29 10:54:34;;;;;;;9.20;3.70;;;;;;;23.59;47.78;99984.83;107146;1251;74994;-80
2022/09/29 10:57:15;;;;;;;10.50;3.60;;;;;;;24.25;47.15;99982.91;107218;1251;72848;-81
2022/09/29 10:59:49;;;;;;;11.80;3.80;;;;;;;24.92;45.45;99975.77;107199;1251;70957;-82
2022/09/29 11:02:39;;;;;;;8.00;3.60;;;;;;;25.27;44.45;99977.55;107184;1254;63799;-83
2022/09/29 11:05:22;;;;;;;7.50;3.40;;;;;;;25.41;44.16;99974.58;107123;1251;61177;-82
2022/09/29 11:07:52;;;;;;;7.80;3.40;;;;;;;25.58;43.75;99973.04;107205;1251;59042;-83
2022/09/29 11:10:37;;;;;;;9.60;3.90;;;;;;;26.00;43.67;99970.89;107022;1251;73676;-83
2022/09/29 11:13:26;;;;;;;8.70;3.50;;;;;;;25.63;43.05;99969.70;106949;1254;61285;-80
2022/09/29 11:16:39;;;;;;;10.20;3.80;;;;;;;25.73;43.28;99964.39;106958;1254;60030;-79
2022/09/29 11:19:13;;;;;;;9.10;4.90;;;;;;;25.53;43.61;99961.25;106489;1256;74008;-85
2022/09/29 11:22:18;;;;;;;13.10;6.90;;;;;;;26.01;42.19;99960.64;106826;1254;61912;-82
2022/09/29 11:25:09;;;;;;;13.40;7.30;;;;;;;26.45;41.74;99955.77;106995;1254;57518;-81
2022/09/29 11:28:22;;;;;;;10.70;4.50;;;;;;;26.52;40.21;99954.98;107137;1251;73633;-79
2022/09/29 11:31:30;;;;;;;5.40;3.10;;;;;;;26.35;39.98;99952.80;107242;1251;71843;-80
2022/09/29 11:34:46;;;;;;;11.40;4.70;;;;;;;26.45;40.69;99950.08;107169;1252;60415;-81
2022/09/29 11:37:50;;;;;;;6.10;3.40;;;;;;;26.75;39.51;99943.32;106578;1260;63391;-83
2022/09/29 11:40:50;;;;;;;4.00;2.50;;;;;;;26.46;39.48;99943.90;107176;1251;61322;-81
2022/09/29 11:44:01;;;;;;;14.50;4.20;;;;;;;26.29;39.68;99939.59;107212;1251;60636;-82
2022/09/29 11:46:47;;;;;;;3.90;2.60;;;;;;;26.48;39.22;99937.24;107108;1254;74214;-83
2022/09/29 11:49:40;;;;;;;18.00;4.30;;;;;;;27.27;38.23;99931.48;107183;1254;72536;-81
2022/09/29 11:52:48;;;;;;;71.40;7.40;;;;;;;27.70;38.75;99931.24;107245;1251;59688;-82
2022/09/29 11:55:56;;;;;;;65.00;7.80;;;;;;;27.25;38.46;99933.45;107138;1254;62967;-82
2022/09/29 11:58:40;;;;;;;270.90;21.90;;;;;;;27.26;38.11;99927.63;107127;1252;61305;-80